sensor_id;sensor_type;location;lat;lon;timestamp;temperature;humidity
16767;DHT22;8501;49.926;8.404;2023-07-09T00:02:23;25.40;99.90
16767;DHT22;8501;49.926;8.404;2023-07-09T00:04:49;25.30;99.90
16767;DHT22;8501;49.926;8.404;2023-07-09T00:07:31;25.20;99.90
16767;DHT22;8501;49.926;8.404;2023-07-09T00:09:58;25.10;99.90
16767;DHT22;8501;49.926;8.404;2023-07-09T00:12:24;25.10;99.90
16767;DHT22;8501;49.926;8.404;2023-07-09T00:14:50;25.00;99.90
16767;DHT22;8501;49.926;8.404;2023-07-09T00:17:30;24.70;99.90
16767;DHT22;8501;49.926;8.404;2023-07-09T00:19:56;24.50;99.90
16767;DHT22;8501;49.926;8.404;2023-07-09T00:22:22;24.50;99.90
16767;DHT22;8501;49.926;8.404;2023-07-09T00:24:50;24.50;99.90
16767;DHT22;8501;49.926;8.404;2023-07-09T00:27:21;24.70;99.90
16767;DHT22;8501;49.926;8.404;2023-07-09T00:29:47;24.60;99.90
16767;DHT22;8501;49.926;8.404;2023-07-09T00:32:18;24.60;99.90
16767;DHT22;8501;49.926;8.404;2023-07-09T00:34:48;24.70;99.90
16767;DHT22;8501;49.926;8.404;2023-07-09T00:37:16;24.60;99.90
16767;DHT22;8501;49.926;8.404;2023-07-09T00:39:48;24.60;99.90
16767;DHT22;8501;49.926;8.404;2023-07-09T00:42:17;24.50;99.90
16767;DHT22;8501;49.926;8.404;2023-07-09T00:44:50;24.40;99.90
16767;DHT22;8501;49.926;8.404;2023-07-09T00:50:10;24.40;99.90
16767;DHT22;8501;49.926;8.404;2023-07-09T00:52:46;24.30;99.90
16767;DHT22;8501;49.926;8.404;2023-07-09T00:55:19;24.20;99.90
16767;DHT22;8501;49.926;8.404;2023-07-09T00:57:48;24.10;99.90
16767;DHT22;8501;49.926;8.404;2023-07-09T01:00:27;24.00;99.90
16767;DHT22;8501;49.926;8.404;2023-07-09T01:02:53;24.10;99.90
16767;DHT22;8501;49.926;8.404;2023-07-09T01:05:19;24.20;99.90
16767;DHT22;8501;49.926;8.404;2023-07-09T01:07:46;24.30;99.90
16767;DHT22;8501;49.926;8.404;2023-07-09T01:10:16;24.20;99.90
16767;DHT22;8501;49.926;8.404;2023-07-09T01:12:44;24.20;99.90
16767;DHT22;8501;49.926;8.404;2023-07-09T01:15:11;24.20;99.90
16767;DHT22;8501;49.926;8.404;2023-07-09T01:17:37;24.10;99.90
16767;DHT22;8501;49.926;8.404;2023-07-09T01:20:03;24.20;99.90
16767;DHT22;8501;49.926;8.404;2023-07-09T01:22:28;24.10;99.90
16767;DHT22;8501;49.926;8.404;2023-07-09T01:25:04;24.10;99.90
16767;DHT22;8501;49.926;8.404;2023-07-09T01:27:37;24.10;99.90
16767;DHT22;8501;49.926;8.404;2023-07-09T01:30:08;23.90;99.90
16767;DHT22;8501;49.926;8.404;2023-07-09T01:32:34;24.00;99.90
16767;DHT22;8501;49.926;8.404;2023-07-09T01:35:01;24.00;99.90
16767;DHT22;8501;49.926;8.404;2023-07-09T01:37:30;23.90;99.90
16767;DHT22;8501;49.926;8.404;2023-07-09T01:39:57;24.00;99.90
16767;DHT22;8501;49.926;8.404;2023-07-09T01:42:24;23.90;99.90
16767;DHT22;8501;49.926;8.404;2023-07-09T01:44:52;23.80;99.90
16767;DHT22;8501;49.926;8.404;2023-07-09T01:47:19;23.90;99.90
16767;DHT22;8501;49.926;8.404;2023-07-09T01:49:44;23.90;99.90
16767;DHT22;8501;49.926;8.404;2023-07-09T01:52:12;23.80;99.90
16767;DHT22;8501;49.926;8.404;2023-07-09T01:54:39;23.80;99.90
16767;DHT22;8501;49.926;8.404;2023-07-09T01:57:21;23.70;99.90
16767;DHT22;8501;49.926;8.404;2023-07-09T01:59:52;23.60;99.90
16767;DHT22;8501;49.926;8.404;2023-07-09T02:02:23;23.60;99.90
16767;DHT22;8501;49.926;8.404;2023-07-09T02:04:56;23.60;99.90
16767;DHT22;8501;49.926;8.404;2023-07-09T02:07:23;23.40;99.90
16767;DHT22;8501;49.926;8.404;2023-07-09T02:09:49;23.30;99.90
16767;DHT22;8501;49.926;8.404;2023-07-09T02:12:16;23.20;99.90
16767;DHT22;8501;49.926;8.404;2023-07-09T02:14:43;23.20;99.90
16767;DHT22;8501;49.926;8.404;2023-07-09T02:17:09;23.20;99.90
16767;DHT22;8501;49.926;8.404;2023-07-09T02:19:35;23.20;99.90
16767;DHT22;8501;49.926;8.404;2023-07-09T02:22:01;23.00;99.90
16767;DHT22;8501;49.926;8.404;2023-07-09T02:24:27;23.00;99.90
16767;DHT22;8501;49.926;8.404;2023-07-09T02:26:57;23.00;99.90
16767;DHT22;8501;49.926;8.404;2023-07-09T02:29:24;22.90;99.90
16767;DHT22;8501;49.926;8.404;2023-07-09T02:31:51;22.90;99.90
16767;DHT22;8501;49.926;8.404;2023-07-09T02:34:18;22.90;99.90
16767;DHT22;8501;49.926;8.404;2023-07-09T02:36:45;22.80;99.90
16767;DHT22;8501;49.926;8.404;2023-07-09T02:39:12;22.70;99.90
16767;DHT22;8501;49.926;8.404;2023-07-09T02:41:38;22.70;99.90
16767;DHT22;8501;49.926;8.404;2023-07-09T02:44:04;22.60;99.90
16767;DHT22;8501;49.926;8.404;2023-07-09T02:46:30;22.60;99.90
16767;DHT22;8501;49.926;8.404;2023-07-09T02:48:55;22.60;99.90
16767;DHT22;8501;49.926;8.404;2023-07-09T02:51:22;22.60;99.90
16767;DHT22;8501;49.926;8.404;2023-07-09T02:53:47;22.70;99.90
16767;DHT22;8501;49.926;8.404;2023-07-09T02:56:13;22.60;99.90
16767;DHT22;8501;49.926;8.404;2023-07-09T02:58:39;22.60;99.90
16767;DHT22;8501;49.926;8.404;2023-07-09T03:01:04;22.50;99.90
16767;DHT22;8501;49.926;8.404;2023-07-09T03:03:31;22.60;99.90
16767;DHT22;8501;49.926;8.404;2023-07-09T03:05:56;22.60;99.90
16767;DHT22;8501;49.926;8.404;2023-07-09T03:08:22;22.60;99.90
16767;DHT22;8501;49.926;8.404;2023-07-09T03:10:48;22.60;99.90
16767;DHT22;8501;49.926;8.404;2023-07-09T03:13:13;22.50;99.90
16767;DHT22;8501;49.926;8.404;2023-07-09T03:15:39;22.50;99.90
16767;DHT22;8501;49.926;8.404;2023-07-09T03:18:04;22.40;99.90
16767;DHT22;8501;49.926;8.404;2023-07-09T03:20:30;22.40;99.90
16767;DHT22;8501;49.926;8.404;2023-07-09T03:22:55;22.30;99.90
16767;DHT22;8501;49.926;8.404;2023-07-09T03:25:21;22.30;99.90
16767;DHT22;8501;49.926;8.404;2023-07-09T03:27:48;22.30;99.90
16767;DHT22;8501;49.926;8.404;2023-07-09T03:30:14;22.40;99.90
16767;DHT22;8501;49.926;8.404;2023-07-09T03:32:39;22.40;99.90
16767;DHT22;8501;49.926;8.404;2023-07-09T03:35:05;22.50;99.90
16767;DHT22;8501;49.926;8.404;2023-07-09T03:37:30;22.50;99.90
16767;DHT22;8501;49.926;8.404;2023-07-09T03:39:56;22.50;99.90
16767;DHT22;8501;49.926;8.404;2023-07-09T03:42:21;22.50;99.90
16767;DHT22;8501;49.926;8.404;2023-07-09T03:44:47;22.40;99.90
16767;DHT22;8501;49.926;8.404;2023-07-09T03:47:12;22.30;99.90
16767;DHT22;8501;49.926;8.404;2023-07-09T03:49:38;22.30;99.90
16767;DHT22;8501;49.926;8.404;2023-07-09T03:52:04;22.20;99.90
16767;DHT22;8501;49.926;8.404;2023-07-09T03:54:29;22.10;99.90
16767;DHT22;8501;49.926;8.404;2023-07-09T03:56:55;22.10;99.90
16767;DHT22;8501;49.926;8.404;2023-07-09T03:59:20;22.00;99.90
16767;DHT22;8501;49.926;8.404;2023-07-09T04:01:46;22.00;99.90
16767;DHT22;8501;49.926;8.404;2023-07-09T04:04:14;22.20;99.90
16767;DHT22;8501;49.926;8.404;2023-07-09T04:06:40;22.20;99.90
16767;DHT22;8501;49.926;8.404;2023-07-09T04:09:06;22.20;99.90
16767;DHT22;8501;49.926;8.404;2023-07-09T04:11:31;22.30;99.90
16767;DHT22;8501;49.926;8.404;2023-07-09T04:13:57;22.30;99.90
16767;DHT22;8501;49.926;8.404;2023-07-09T04:16:22;22.30;99.90
16767;DHT22;8501;49.926;8.404;2023-07-09T04:18:48;22.20;99.90
16767;DHT22;8501;49.926;8.404;2023-07-09T04:21:13;22.30;99.90
16767;DHT22;8501;49.926;8.404;2023-07-09T04:23:39;22.20;99.90
16767;DHT22;8501;49.926;8.404;2023-07-09T04:26:04;22.20;99.90
16767;DHT22;8501;49.926;8.404;2023-07-09T04:28:34;22.20;99.90
16767;DHT22;8501;49.926;8.404;2023-07-09T04:30:59;22.20;99.90
16767;DHT22;8501;49.926;8.404;2023-07-09T04:33:25;22.10;99.90
16767;DHT22;8501;49.926;8.404;2023-07-09T04:35:51;22.10;99.90
16767;DHT22;8501;49.926;8.404;2023-07-09T04:38:16;22.20;99.90
16767;DHT22;8501;49.926;8.404;2023-07-09T04:40:42;22.20;99.90
16767;DHT22;8501;49.926;8.404;2023-07-09T04:43:07;22.20;99.90
16767;DHT22;8501;49.926;8.404;2023-07-09T04:45:33;22.20;99.90
16767;DHT22;8501;49.926;8.404;2023-07-09T04:47:59;22.20;99.90
16767;DHT22;8501;49.926;8.404;2023-07-09T04:50:24;22.20;99.90
16767;DHT22;8501;49.926;8.404;2023-07-09T04:52:50;22.30;99.90
16767;DHT22;8501;49.926;8.404;2023-07-09T04:55:17;22.30;99.90
16767;DHT22;8501;49.926;8.404;2023-07-09T04:57:44;22.30;99.90
16767;DHT22;8501;49.926;8.404;2023-07-09T05:00:10;22.50;99.90
16767;DHT22;8501;49.926;8.404;2023-07-09T05:02:36;22.50;99.90
16767;DHT22;8501;49.926;8.404;2023-07-09T05:05:02;22.40;99.90
16767;DHT22;8501;49.926;8.404;2023-07-09T05:07:27;22.50;99.90
16767;DHT22;8501;49.926;8.404;2023-07-09T05:09:53;22.50;99.90
16767;DHT22;8501;49.926;8.404;2023-07-09T05:12:18;22.50;99.90
16767;DHT22;8501;49.926;8.404;2023-07-09T05:14:45;22.60;99.90
16767;DHT22;8501;49.926;8.404;2023-07-09T05:17:10;22.70;99.90
16767;DHT22;8501;49.926;8.404;2023-07-09T05:19:36;22.70;99.90
16767;DHT22;8501;49.926;8.404;2023-07-09T05:22:02;22.70;99.90
16767;DHT22;8501;49.926;8.404;2023-07-09T05:24:28;22.80;99.90
16767;DHT22;8501;49.926;8.404;2023-07-09T05:26:54;22.80;99.90
16767;DHT22;8501;49.926;8.404;2023-07-09T05:29:19;22.80;99.90
16767;DHT22;8501;49.926;8.404;2023-07-09T05:31:45;22.90;99.90
16767;DHT22;8501;49.926;8.404;2023-07-09T05:34:10;22.90;99.90
16767;DHT22;8501;49.926;8.404;2023-07-09T05:36:36;23.00;99.90
16767;DHT22;8501;49.926;8.404;2023-07-09T05:39:01;23.00;99.90
16767;DHT22;8501;49.926;8.404;2023-07-09T05:41:27;23.10;99.90
16767;DHT22;8501;49.926;8.404;2023-07-09T05:43:52;23.10;99.90
16767;DHT22;8501;49.926;8.404;2023-07-09T05:46:18;23.20;99.90
16767;DHT22;8501;49.926;8.404;2023-07-09T05:48:44;23.20;99.90
16767;DHT22;8501;49.926;8.404;2023-07-09T05:51:10;23.20;99.90
16767;DHT22;8501;49.926;8.404;2023-07-09T05:53:36;23.30;99.90
16767;DHT22;8501;49.926;8.404;2023-07-09T05:56:01;23.20;99.90
16767;DHT22;8501;49.926;8.404;2023-07-09T05:58:27;23.30;99.90
16767;DHT22;8501;49.926;8.404;2023-07-09T06:00:53;23.30;99.90
16767;DHT22;8501;49.926;8.404;2023-07-09T06:03:20;23.30;99.90
16767;DHT22;8501;49.926;8.404;2023-07-09T06:05:47;23.30;99.90
16767;DHT22;8501;49.926;8.404;2023-07-09T06:08:15;23.40;99.90
16767;DHT22;8501;49.926;8.404;2023-07-09T06:11:00;23.40;99.90
16767;DHT22;8501;49.926;8.404;2023-07-09T06:13:27;23.40;99.90
16767;DHT22;8501;49.926;8.404;2023-07-09T06:15:54;23.50;99.90
16767;DHT22;8501;49.926;8.404;2023-07-09T06:18:20;23.50;99.90
16767;DHT22;8501;49.926;8.404;2023-07-09T06:20:48;23.50;99.90
16767;DHT22;8501;49.926;8.404;2023-07-09T06:23:14;23.60;99.90
16767;DHT22;8501;49.926;8.404;2023-07-09T06:25:40;23.60;99.90
16767;DHT22;8501;49.926;8.404;2023-07-09T06:28:05;23.70;99.90
16767;DHT22;8501;49.926;8.404;2023-07-09T06:30:31;23.70;99.90
16767;DHT22;8501;49.926;8.404;2023-07-09T06:32:57;23.70;99.90
16767;DHT22;8501;49.926;8.404;2023-07-09T06:35:22;23.80;99.90
16767;DHT22;8501;49.926;8.404;2023-07-09T06:37:48;23.90;99.90
16767;DHT22;8501;49.926;8.404;2023-07-09T06:40:14;23.90;99.90
16767;DHT22;8501;49.926;8.404;2023-07-09T06:42:39;24.00;99.90
16767;DHT22;8501;49.926;8.404;2023-07-09T06:45:05;24.10;99.90
16767;DHT22;8501;49.926;8.404;2023-07-09T06:47:31;24.10;99.90
16767;DHT22;8501;49.926;8.404;2023-07-09T06:49:56;24.10;99.90
16767;DHT22;8501;49.926;8.404;2023-07-09T06:52:22;24.10;99.90
16767;DHT22;8501;49.926;8.404;2023-07-09T06:54:47;24.20;99.90
16767;DHT22;8501;49.926;8.404;2023-07-09T06:57:14;24.20;99.90
16767;DHT22;8501;49.926;8.404;2023-07-09T06:59:40;24.30;99.90
16767;DHT22;8501;49.926;8.404;2023-07-09T07:02:06;24.40;99.90
16767;DHT22;8501;49.926;8.404;2023-07-09T07:04:33;24.50;99.90
16767;DHT22;8501;49.926;8.404;2023-07-09T07:06:58;24.50;99.90
16767;DHT22;8501;49.926;8.404;2023-07-09T07:09:23;24.60;99.90
16767;DHT22;8501;49.926;8.404;2023-07-09T07:11:50;24.70;99.90
16767;DHT22;8501;49.926;8.404;2023-07-09T07:14:16;24.70;99.90
16767;DHT22;8501;49.926;8.404;2023-07-09T07:16:41;24.80;99.90
16767;DHT22;8501;49.926;8.404;2023-07-09T07:19:07;24.90;99.90
16767;DHT22;8501;49.926;8.404;2023-07-09T07:21:32;24.90;99.90
16767;DHT22;8501;49.926;8.404;2023-07-09T07:23:58;25.00;99.90
16767;DHT22;8501;49.926;8.404;2023-07-09T07:26:24;25.00;99.90
16767;DHT22;8501;49.926;8.404;2023-07-09T07:28:50;25.10;99.90
16767;DHT22;8501;49.926;8.404;2023-07-09T07:31:16;25.20;99.90
16767;DHT22;8501;49.926;8.404;2023-07-09T07:33:42;25.30;99.90
16767;DHT22;8501;49.926;8.404;2023-07-09T07:36:08;25.30;99.90
16767;DHT22;8501;49.926;8.404;2023-07-09T07:38:33;25.30;99.90
16767;DHT22;8501;49.926;8.404;2023-07-09T07:41:00;25.40;99.90
16767;DHT22;8501;49.926;8.404;2023-07-09T07:43:26;25.40;99.90
16767;DHT22;8501;49.926;8.404;2023-07-09T07:45:51;25.40;99.90
16767;DHT22;8501;49.926;8.404;2023-07-09T07:48:17;25.50;99.90
16767;DHT22;8501;49.926;8.404;2023-07-09T07:50:45;25.60;99.90
16767;DHT22;8501;49.926;8.404;2023-07-09T07:53:11;25.70;99.90
16767;DHT22;8501;49.926;8.404;2023-07-09T07:55:37;25.70;99.90
16767;DHT22;8501;49.926;8.404;2023-07-09T07:58:03;25.70;99.90
16767;DHT22;8501;49.926;8.404;2023-07-09T08:00:30;25.90;99.90
16767;DHT22;8501;49.926;8.404;2023-07-09T08:02:56;25.90;99.90
16767;DHT22;8501;49.926;8.404;2023-07-09T08:05:21;26.00;99.90
16767;DHT22;8501;49.926;8.404;2023-07-09T08:07:49;26.10;99.90
16767;DHT22;8501;49.926;8.404;2023-07-09T08:10:15;26.20;99.90
16767;DHT22;8501;49.926;8.404;2023-07-09T08:12:41;26.20;99.90
16767;DHT22;8501;49.926;8.404;2023-07-09T08:15:07;26.30;99.90
16767;DHT22;8501;49.926;8.404;2023-07-09T08:17:33;26.40;99.90
16767;DHT22;8501;49.926;8.404;2023-07-09T08:19:58;26.50;99.90
16767;DHT22;8501;49.926;8.404;2023-07-09T08:22:24;26.50;99.90
16767;DHT22;8501;49.926;8.404;2023-07-09T08:24:50;26.60;99.90
16767;DHT22;8501;49.926;8.404;2023-07-09T08:27:16;26.70;99.90
16767;DHT22;8501;49.926;8.404;2023-07-09T08:29:42;26.70;99.90
16767;DHT22;8501;49.926;8.404;2023-07-09T08:32:09;26.80;99.90
16767;DHT22;8501;49.926;8.404;2023-07-09T08:34:35;26.90;99.90
16767;DHT22;8501;49.926;8.404;2023-07-09T08:37:01;26.90;99.90
16767;DHT22;8501;49.926;8.404;2023-07-09T08:39:27;27.00;99.90
16767;DHT22;8501;49.926;8.404;2023-07-09T08:41:59;27.00;99.90
16767;DHT22;8501;49.926;8.404;2023-07-09T08:47:16;27.10;99.90
16767;DHT22;8501;49.926;8.404;2023-07-09T08:49:47;27.20;99.90
16767;DHT22;8501;49.926;8.404;2023-07-09T08:52:36;27.30;99.90
16767;DHT22;8501;49.926;8.404;2023-07-09T08:55:12;27.30;99.90
16767;DHT22;8501;49.926;8.404;2023-07-09T08:57:50;27.30;99.90
16767;DHT22;8501;49.926;8.404;2023-07-09T09:00:27;27.40;99.90
16767;DHT22;8501;49.926;8.404;2023-07-09T09:03:00;27.50;99.90
16767;DHT22;8501;49.926;8.404;2023-07-09T09:05:29;27.50;99.90
16767;DHT22;8501;49.926;8.404;2023-07-09T09:08:03;27.70;99.90
16767;DHT22;8501;49.926;8.404;2023-07-09T09:10:39;27.80;99.90
16767;DHT22;8501;49.926;8.404;2023-07-09T09:13:15;27.90;99.90
16767;DHT22;8501;49.926;8.404;2023-07-09T09:15:46;28.00;99.90
16767;DHT22;8501;49.926;8.404;2023-07-09T09:18:25;28.10;99.90
16767;DHT22;8501;49.926;8.404;2023-07-09T09:23:40;28.20;99.90
16767;DHT22;8501;49.926;8.404;2023-07-09T09:26:17;28.30;99.90
16767;DHT22;8501;49.926;8.404;2023-07-09T09:28:43;28.40;99.90
16767;DHT22;8501;49.926;8.404;2023-07-09T09:31:11;28.50;99.90
16767;DHT22;8501;49.926;8.404;2023-07-09T09:33:46;28.60;99.90
16767;DHT22;8501;49.926;8.404;2023-07-09T09:36:23;28.60;99.90
16767;DHT22;8501;49.926;8.404;2023-07-09T09:38:50;28.60;99.90
16767;DHT22;8501;49.926;8.404;2023-07-09T09:41:21;28.70;99.90
16767;DHT22;8501;49.926;8.404;2023-07-09T09:43:48;28.80;99.90
16767;DHT22;8501;49.926;8.404;2023-07-09T09:46:23;28.90;99.90
16767;DHT22;8501;49.926;8.404;2023-07-09T09:48:52;29.00;99.90
16767;DHT22;8501;49.926;8.404;2023-07-09T09:51:18;29.10;99.90
16767;DHT22;8501;49.926;8.404;2023-07-09T09:53:48;29.20;99.90
16767;DHT22;8501;49.926;8.404;2023-07-09T09:56:25;29.20;99.90
16767;DHT22;8501;49.926;8.404;2023-07-09T09:58:53;29.30;99.90
16767;DHT22;8501;49.926;8.404;2023-07-09T10:01:24;29.40;99.90
16767;DHT22;8501;49.926;8.404;2023-07-09T10:03:51;29.50;99.90
16767;DHT22;8501;49.926;8.404;2023-07-09T10:06:35;29.50;99.90
16767;DHT22;8501;49.926;8.404;2023-07-09T10:09:08;29.60;99.90
16767;DHT22;8501;49.926;8.404;2023-07-09T10:11:49;29.70;99.90
16767;DHT22;8501;49.926;8.404;2023-07-09T10:14:33;29.80;99.90
16767;DHT22;8501;49.926;8.404;2023-07-09T10:17:22;29.80;99.90
16767;DHT22;8501;49.926;8.404;2023-07-09T10:20:00;30.00;99.90
16767;DHT22;8501;49.926;8.404;2023-07-09T10:28:05;30.20;99.90
16767;DHT22;8501;49.926;8.404;2023-07-09T10:30:58;30.20;99.90
16767;DHT22;8501;49.926;8.404;2023-07-09T10:33:27;30.30;99.90
16767;DHT22;8501;49.926;8.404;2023-07-09T10:41:12;30.50;99.90
16767;DHT22;8501;49.926;8.404;2023-07-09T10:43:46;30.70;99.90
16767;DHT22;8501;49.926;8.404;2023-07-09T10:46:22;30.80;99.90
16767;DHT22;8501;49.926;8.404;2023-07-09T10:48:53;30.80;99.90
16767;DHT22;8501;49.926;8.404;2023-07-09T10:51:36;30.80;99.90
16767;DHT22;8501;49.926;8.404;2023-07-09T10:54:14;30.90;99.90
16767;DHT22;8501;49.926;8.404;2023-07-09T10:56:40;31.00;99.90
16767;DHT22;8501;49.926;8.404;2023-07-09T10:59:33;31.10;99.90
16767;DHT22;8501;49.926;8.404;2023-07-09T11:02:26;31.20;99.90
16767;DHT22;8501;49.926;8.404;2023-07-09T11:04:57;31.20;99.90
16767;DHT22;8501;49.926;8.404;2023-07-09T11:07:36;31.20;99.90
16767;DHT22;8501;49.926;8.404;2023-07-09T11:10:19;31.40;99.90
16767;DHT22;8501;49.926;8.404;2023-07-09T11:13:12;31.50;99.90
16767;DHT22;8501;49.926;8.404;2023-07-09T11:15:48;31.60;99.90
16767;DHT22;8501;49.926;8.404;2023-07-09T11:18:24;31.80;99.90
16767;DHT22;8501;49.926;8.404;2023-07-09T11:21:05;31.80;99.90
16767;DHT22;8501;49.926;8.404;2023-07-09T11:23:53;31.80;99.90
16767;DHT22;8501;49.926;8.404;2023-07-09T11:26:34;31.90;99.90
16767;DHT22;8501;49.926;8.404;2023-07-09T11:34:08;32.30;99.90
16767;DHT22;8501;49.926;8.404;2023-07-09T11:36:45;32.30;99.90
16767;DHT22;8501;49.926;8.404;2023-07-09T11:39:20;32.40;99.90
16767;DHT22;8501;49.926;8.404;2023-07-09T11:41:47;32.40;99.90
16767;DHT22;8501;49.926;8.404;2023-07-09T11:49:18;32.50;99.90
16767;DHT22;8501;49.926;8.404;2023-07-09T11:51:52;32.70;99.90
16767;DHT22;8501;49.926;8.404;2023-07-09T11:54:20;32.80;99.90
16767;DHT22;8501;49.926;8.404;2023-07-09T11:56:57;32.80;99.90
16767;DHT22;8501;49.926;8.404;2023-07-09T11:59:22;32.70;99.90
16767;DHT22;8501;49.926;8.404;2023-07-09T12:01:49;32.80;99.90
16767;DHT22;8501;49.926;8.404;2023-07-09T12:04:19;33.00;99.90
16767;DHT22;8501;49.926;8.404;2023-07-09T12:06:46;33.00;99.50
16767;DHT22;8501;49.926;8.404;2023-07-09T12:09:20;33.10;99.70
16767;DHT22;8501;49.926;8.404;2023-07-09T12:11:50;33.00;98.80
16767;DHT22;8501;49.926;8.404;2023-07-09T12:14:21;32.90;99.40
16767;DHT22;8501;49.926;8.404;2023-07-09T12:16:51;33.10;98.90
16767;DHT22;8501;49.926;8.404;2023-07-09T12:19:20;33.30;99.40
16767;DHT22;8501;49.926;8.404;2023-07-09T12:21:51;33.40;99.10
16767;DHT22;8501;49.926;8.404;2023-07-09T12:24:29;33.40;98.60
16767;DHT22;8501;49.926;8.404;2023-07-09T12:27:01;33.50;98.40
16767;DHT22;8501;49.926;8.404;2023-07-09T12:29:34;33.50;97.60
16767;DHT22;8501;49.926;8.404;2023-07-09T12:32:15;33.60;96.70
16767;DHT22;8501;49.926;8.404;2023-07-09T12:34:42;33.70;96.60
16767;DHT22;8501;49.926;8.404;2023-07-09T12:37:13;33.70;96.30
16767;DHT22;8501;49.926;8.404;2023-07-09T12:39:39;33.70;96.20
16767;DHT22;8501;49.926;8.404;2023-07-09T12:42:05;33.70;96.00
16767;DHT22;8501;49.926;8.404;2023-07-09T12:44:36;33.80;96.70
16767;DHT22;8501;49.926;8.404;2023-07-09T12:47:02;34.00;96.40
16767;DHT22;8501;49.926;8.404;2023-07-09T12:49:38;34.10;96.70
16767;DHT22;8501;49.926;8.404;2023-07-09T12:52:12;34.20;95.00
16767;DHT22;8501;49.926;8.404;2023-07-09T12:54:37;34.20;95.20
16767;DHT22;8501;49.926;8.404;2023-07-09T12:57:14;34.20;95.00
16767;DHT22;8501;49.926;8.404;2023-07-09T12:59:44;34.30;94.90
16767;DHT22;8501;49.926;8.404;2023-07-09T13:02:21;34.30;94.20
16767;DHT22;8501;49.926;8.404;2023-07-09T13:04:48;34.30;93.20
16767;DHT22;8501;49.926;8.404;2023-07-09T13:09:53;34.40;93.50
16767;DHT22;8501;49.926;8.404;2023-07-09T13:12:20;34.50;93.80
16767;DHT22;8501;49.926;8.404;2023-07-09T13:14:55;34.50;93.60
16767;DHT22;8501;49.926;8.404;2023-07-09T13:17:21;34.50;93.60
16767;DHT22;8501;49.926;8.404;2023-07-09T13:19:47;34.50;93.40
16767;DHT22;8501;49.926;8.404;2023-07-09T13:22:18;34.50;93.70
16767;DHT22;8501;49.926;8.404;2023-07-09T13:24:47;34.60;93.00
16767;DHT22;8501;49.926;8.404;2023-07-09T13:27:14;34.80;92.90
16767;DHT22;8501;49.926;8.404;2023-07-09T13:29:39;34.70;93.30
16767;DHT22;8501;49.926;8.404;2023-07-09T13:32:10;34.80;93.70
16767;DHT22;8501;49.926;8.404;2023-07-09T13:34:36;34.90;93.10
16767;DHT22;8501;49.926;8.404;2023-07-09T13:37:02;35.00;93.30
16767;DHT22;8501;49.926;8.404;2023-07-09T13:39:27;35.00;91.90
16767;DHT22;8501;49.926;8.404;2023-07-09T13:41:53;35.10;92.20
16767;DHT22;8501;49.926;8.404;2023-07-09T13:44:27;35.20;92.20
16767;DHT22;8501;49.926;8.404;2023-07-09T13:46:53;35.20;92.30
16767;DHT22;8501;49.926;8.404;2023-07-09T13:49:21;35.40;91.10
16767;DHT22;8501;49.926;8.404;2023-07-09T13:51:49;35.50;90.90
16767;DHT22;8501;49.926;8.404;2023-07-09T13:54:22;35.50;89.80
16767;DHT22;8501;49.926;8.404;2023-07-09T13:56:49;35.60;89.80
16767;DHT22;8501;49.926;8.404;2023-07-09T13:59:23;35.60;90.10
16767;DHT22;8501;49.926;8.404;2023-07-09T14:01:51;35.60;90.10
16767;DHT22;8501;49.926;8.404;2023-07-09T14:04:18;35.80;88.50
16767;DHT22;8501;49.926;8.404;2023-07-09T14:06:45;35.70;88.00
16767;DHT22;8501;49.926;8.404;2023-07-09T14:09:15;35.60;87.60
16767;DHT22;8501;49.926;8.404;2023-07-09T14:11:53;35.70;86.10
16767;DHT22;8501;49.926;8.404;2023-07-09T14:14:22;35.60;85.70
16767;DHT22;8501;49.926;8.404;2023-07-09T14:16:49;35.70;85.30
16767;DHT22;8501;49.926;8.404;2023-07-09T14:19:18;35.80;85.80
16767;DHT22;8501;49.926;8.404;2023-07-09T14:21:44;35.80;84.90
16767;DHT22;8501;49.926;8.404;2023-07-09T14:24:21;35.80;83.80
16767;DHT22;8501;49.926;8.404;2023-07-09T14:26:48;35.80;83.60
16767;DHT22;8501;49.926;8.404;2023-07-09T14:29:15;35.90;83.30
16767;DHT22;8501;49.926;8.404;2023-07-09T14:31:44;36.00;81.70
16767;DHT22;8501;49.926;8.404;2023-07-09T14:34:28;36.00;81.90
16767;DHT22;8501;49.926;8.404;2023-07-09T14:36:55;36.00;82.90
16767;DHT22;8501;49.926;8.404;2023-07-09T14:39:22;36.10;80.70
16767;DHT22;8501;49.926;8.404;2023-07-09T14:41:48;36.20;81.40
16767;DHT22;8501;49.926;8.404;2023-07-09T14:44:30;36.20;80.60
16767;DHT22;8501;49.926;8.404;2023-07-09T14:46:58;36.20;80.70
16767;DHT22;8501;49.926;8.404;2023-07-09T14:49:24;36.30;79.40
16767;DHT22;8501;49.926;8.404;2023-07-09T14:51:51;36.30;80.00
16767;DHT22;8501;49.926;8.404;2023-07-09T14:54:25;36.40;77.70
16767;DHT22;8501;49.926;8.404;2023-07-09T14:56:53;36.30;76.90
16767;DHT22;8501;49.926;8.404;2023-07-09T14:59:19;36.20;76.70
16767;DHT22;8501;49.926;8.404;2023-07-09T15:01:44;36.20;77.70
16767;DHT22;8501;49.926;8.404;2023-07-09T15:04:30;36.00;77.60
16767;DHT22;8501;49.926;8.404;2023-07-09T15:06:57;35.90;76.70
16767;DHT22;8501;49.926;8.404;2023-07-09T15:09:26;35.80;77.70
16767;DHT22;8501;49.926;8.404;2023-07-09T15:11:56;35.80;77.50
16767;DHT22;8501;49.926;8.404;2023-07-09T15:14:24;35.90;77.10
16767;DHT22;8501;49.926;8.404;2023-07-09T15:16:50;35.90;77.30
16767;DHT22;8501;49.926;8.404;2023-07-09T15:19:18;36.00;78.10
16767;DHT22;8501;49.926;8.404;2023-07-09T15:21:44;36.00;77.30
16767;DHT22;8501;49.926;8.404;2023-07-09T15:24:32;36.10;77.60
16767;DHT22;8501;49.926;8.404;2023-07-09T15:26:58;36.00;77.50
16767;DHT22;8501;49.926;8.404;2023-07-09T15:29:25;36.00;76.60
16767;DHT22;8501;49.926;8.404;2023-07-09T15:31:51;35.80;77.30
16767;DHT22;8501;49.926;8.404;2023-07-09T15:34:17;35.70;78.50
16767;DHT22;8501;49.926;8.404;2023-07-09T15:36:48;35.70;78.20
16767;DHT22;8501;49.926;8.404;2023-07-09T15:39:15;35.50;78.10
16767;DHT22;8501;49.926;8.404;2023-07-09T15:41:41;35.40;77.90
16767;DHT22;8501;49.926;8.404;2023-07-09T15:44:14;35.30;77.40
16767;DHT22;8501;49.926;8.404;2023-07-09T15:46:41;35.30;78.00
16767;DHT22;8501;49.926;8.404;2023-07-09T15:49:11;35.20;77.60
16767;DHT22;8501;49.926;8.404;2023-07-09T15:51:37;35.20;78.10
16767;DHT22;8501;49.926;8.404;2023-07-09T15:54:18;35.10;77.90
16767;DHT22;8501;49.926;8.404;2023-07-09T15:56:44;35.10;78.40
16767;DHT22;8501;49.926;8.404;2023-07-09T15:59:25;35.10;77.00
16767;DHT22;8501;49.926;8.404;2023-07-09T16:01:52;35.10;77.80
16767;DHT22;8501;49.926;8.404;2023-07-09T16:04:17;35.00;77.90
16767;DHT22;8501;49.926;8.404;2023-07-09T16:06:43;35.00;77.60
16767;DHT22;8501;49.926;8.404;2023-07-09T16:09:09;35.00;78.20
16767;DHT22;8501;49.926;8.404;2023-07-09T16:11:37;35.00;77.40
16767;DHT22;8501;49.926;8.404;2023-07-09T16:14:25;34.90;77.60
16767;DHT22;8501;49.926;8.404;2023-07-09T16:16:53;35.00;78.50
16767;DHT22;8501;49.926;8.404;2023-07-09T16:19:21;35.00;79.60
16767;DHT22;8501;49.926;8.404;2023-07-09T16:21:48;35.00;80.20
16767;DHT22;8501;49.926;8.404;2023-07-09T16:24:22;35.00;80.20
16767;DHT22;8501;49.926;8.404;2023-07-09T16:26:49;34.90;80.40
16767;DHT22;8501;49.926;8.404;2023-07-09T16:29:26;34.90;81.20